MON742 EGKK-LEMG
Flight info
| Callsign | MON742 |
|---|---|
| Flight time | N/A |
| Altitude | 35000 |
| Route | IMVUR N63 SAM M195 MARUK N621 LELNA DCT NOVAN DCT DELOG DCT CRISA/N0457F370 N864 VULPE |
| Aircraft | A306/H-SDE3FGHIRWY/LB1 |
Departure
| Time | N/A |
|---|---|
| Airport | London Gatwick Airport (EGKK) |
Arrival
| Time | 2026-05-05 11:03 |
|---|---|
| Airport | Málaga-Costa del Sol Airport (LEMG) |
| Time | Latitude | Longitude | Altitude | Speed | Heading |
|---|---|---|---|---|---|
| 2026-05-05 09:00 | 49.31726 | -2.41417 | 34962 ft | 447 kts | 196° |
| 2026-05-05 09:00 | 49.25764 | -2.44133 | 34964 ft | 446 kts | 195° |
| 2026-05-05 09:01 | 49.19817 | -2.46834 | 34944 ft | 445 kts | 195° |
| 2026-05-05 09:01 | 49.13887 | -2.49520 | 34944 ft | 445 kts | 195° |
| 2026-05-05 09:02 | 49.07996 | -2.52182 | 34945 ft | 444 kts | 195° |
| 2026-05-05 09:02 | 49.02076 | -2.54853 | 34947 ft | 442 kts | 195° |
| 2026-05-05 09:03 | 48.96195 | -2.57499 | 34948 ft | 440 kts | 195° |
| 2026-05-05 09:03 | 48.90326 | -2.60132 | 34959 ft | 440 kts | 195° |
| 2026-05-05 09:04 | 48.84454 | -2.62749 | 34953 ft | 440 kts | 195° |
| 2026-05-05 09:04 | 48.78551 | -2.65392 | 34949 ft | 444 kts | 195° |
| 2026-05-05 09:05 | 48.72611 | -2.68039 | 34950 ft | 445 kts | 195° |
| 2026-05-05 09:05 | 48.66706 | -2.70660 | 34945 ft | 445 kts | 195° |
| 2026-05-05 09:06 | 48.60762 | -2.73293 | 34945 ft | 445 kts | 194° |
| 2026-05-05 09:06 | 48.54827 | -2.75915 | 34945 ft | 444 kts | 194° |
| 2026-05-05 09:07 | 48.48899 | -2.78530 | 34950 ft | 444 kts | 194° |
| 2026-05-05 09:07 | 48.42972 | -2.81137 | 34947 ft | 444 kts | 194° |
| 2026-05-05 09:08 | 48.37039 | -2.83741 | 34948 ft | 444 kts | 194° |
| 2026-05-05 09:08 | 48.31090 | -2.86344 | 34943 ft | 445 kts | 194° |
| 2026-05-05 09:09 | 48.25138 | -2.88943 | 34931 ft | 445 kts | 194° |
| 2026-05-05 09:09 | 48.19195 | -2.91532 | 34935 ft | 445 kts | 194° |
| 2026-05-05 09:10 | 48.13240 | -2.94119 | 34938 ft | 446 kts | 194° |
| 2026-05-05 09:10 | 48.07263 | -2.96710 | 34931 ft | 447 kts | 194° |
| 2026-05-05 09:11 | 48.01294 | -2.99294 | 34927 ft | 449 kts | 194° |
| 2026-05-05 09:11 | 47.95272 | -3.01891 | 34931 ft | 451 kts | 194° |
| 2026-05-05 09:12 | 47.89220 | -3.04495 | 34941 ft | 453 kts | 194° |
| 2026-05-05 09:12 | 47.83166 | -3.07093 | 34930 ft | 453 kts | 194° |
| 2026-05-05 09:13 | 47.77147 | -3.09672 | 34938 ft | 453 kts | 194° |
| 2026-05-05 09:13 | 47.71087 | -3.12259 | 34936 ft | 454 kts | 194° |
| 2026-05-05 09:14 | 47.65007 | -3.14850 | 34935 ft | 455 kts | 194° |
| 2026-05-05 09:14 | 47.58919 | -3.17439 | 34932 ft | 455 kts | 194° |
| 2026-05-05 09:15 | 47.52831 | -3.20021 | 34936 ft | 455 kts | 194° |
| 2026-05-05 09:15 | 47.46730 | -3.22602 | 34935 ft | 456 kts | 194° |
| 2026-05-05 09:16 | 47.40626 | -3.25179 | 34934 ft | 456 kts | 194° |
| 2026-05-05 09:16 | 47.34522 | -3.27749 | 34935 ft | 456 kts | 194° |
| 2026-05-05 09:17 | 47.28414 | -3.30314 | 34952 ft | 457 kts | 194° |
| 2026-05-05 09:17 | 47.25348 | -3.31599 | 35153 ft | 458 kts | 194° |
| 2026-05-05 09:17 | 47.22279 | -3.32884 | 35355 ft | 458 kts | 194° |
| 2026-05-05 09:17 | 47.19248 | -3.34152 | 35581 ft | 458 kts | 194° |
| 2026-05-05 09:18 | 47.16185 | -3.35432 | 35849 ft | 457 kts | 194° |
| 2026-05-05 09:18 | 47.13124 | -3.36709 | 36065 ft | 457 kts | 195° |
| 2026-05-05 09:18 | 47.10055 | -3.37988 | 36281 ft | 458 kts | 195° |
| 2026-05-05 09:18 | 47.06994 | -3.39263 | 36553 ft | 456 kts | 195° |
| 2026-05-05 09:19 | 47.03938 | -3.40533 | 36746 ft | 457 kts | 195° |
| 2026-05-05 09:19 | 47.00870 | -3.41807 | 36891 ft | 459 kts | 195° |
| 2026-05-05 09:19 | 46.97798 | -3.43082 | 36942 ft | 460 kts | 195° |
| 2026-05-05 09:20 | 46.91641 | -3.45632 | 36951 ft | 459 kts | 195° |
| 2026-05-05 09:20 | 46.85501 | -3.48168 | 36944 ft | 458 kts | 195° |
| 2026-05-05 09:21 | 46.79363 | -3.50698 | 36944 ft | 458 kts | 195° |
| 2026-05-05 09:21 | 46.73266 | -3.53204 | 36943 ft | 458 kts | 195° |
| 2026-05-05 09:22 | 46.67139 | -3.55717 | 36943 ft | 457 kts | 195° |
| 2026-05-05 09:22 | 46.61007 | -3.58227 | 36948 ft | 458 kts | 195° |
| 2026-05-05 09:23 | 46.54871 | -3.60731 | 36946 ft | 458 kts | 195° |
| 2026-05-05 09:23 | 46.48737 | -3.63229 | 36950 ft | 457 kts | 195° |
| 2026-05-05 09:24 | 46.42579 | -3.65731 | 36945 ft | 459 kts | 195° |
| 2026-05-05 09:24 | 46.36419 | -3.68228 | 36947 ft | 460 kts | 195° |
| 2026-05-05 09:25 | 46.30220 | -3.70155 | 36955 ft | 459 kts | 187° |
| 2026-05-05 09:25 | 46.23878 | -3.71239 | 36956 ft | 459 kts | 186° |
| 2026-05-05 09:26 | 46.17532 | -3.72166 | 36950 ft | 458 kts | 186° |
| 2026-05-05 09:26 | 46.11168 | -3.73082 | 36949 ft | 458 kts | 186° |
| 2026-05-05 09:27 | 46.04826 | -3.74012 | 36949 ft | 458 kts | 186° |
| 2026-05-05 09:27 | 45.99548 | -3.74793 | 36949 ft | 458 kts | 186° |
| 2026-05-05 09:28 | 45.92180 | -3.75885 | 36957 ft | 458 kts | 186° |
| 2026-05-05 09:28 | 45.85834 | -3.76821 | 36961 ft | 458 kts | 186° |
| 2026-05-05 09:29 | 45.80551 | -3.77600 | 36955 ft | 459 kts | 186° |
| 2026-05-05 09:29 | 45.74195 | -3.78534 | 36964 ft | 459 kts | 186° |
| 2026-05-05 09:30 | 45.67830 | -3.79466 | 36961 ft | 459 kts | 186° |
| 2026-05-05 09:30 | 45.61464 | -3.80397 | 36963 ft | 459 kts | 186° |
| 2026-05-05 09:31 | 45.55108 | -3.81324 | 36967 ft | 459 kts | 186° |
| 2026-05-05 09:31 | 45.48735 | -3.82252 | 36965 ft | 460 kts | 187° |
| 2026-05-05 09:32 | 45.42365 | -3.83177 | 36966 ft | 461 kts | 187° |
| 2026-05-05 09:32 | 45.36022 | -3.84096 | 36965 ft | 461 kts | 186° |
| 2026-05-05 09:33 | 45.29632 | -3.85020 | 36968 ft | 461 kts | 187° |
| 2026-05-05 09:33 | 45.23238 | -3.85943 | 36973 ft | 462 kts | 187° |
| 2026-05-05 09:34 | 45.16819 | -3.86867 | 36973 ft | 464 kts | 187° |
| 2026-05-05 09:34 | 45.10389 | -3.87791 | 36968 ft | 464 kts | 187° |
| 2026-05-05 09:35 | 45.03961 | -3.88711 | 36971 ft | 464 kts | 187° |
| 2026-05-05 09:35 | 44.94324 | -3.90088 | 36972 ft | 464 kts | 187° |
| 2026-05-05 09:36 | 44.87904 | -3.91003 | 36976 ft | 463 kts | 187° |
| 2026-05-05 09:36 | 44.81522 | -3.91910 | 36977 ft | 463 kts | 187° |
| 2026-05-05 09:37 | 44.75102 | -3.92821 | 36975 ft | 463 kts | 187° |
| 2026-05-05 09:37 | 44.68683 | -3.93730 | 36974 ft | 463 kts | 187° |
| 2026-05-05 09:38 | 44.62270 | -3.94635 | 36980 ft | 463 kts | 187° |
| 2026-05-05 09:38 | 44.55843 | -3.95541 | 36980 ft | 463 kts | 187° |
| 2026-05-05 09:39 | 44.49419 | -3.96444 | 36978 ft | 463 kts | 187° |
| 2026-05-05 09:39 | 44.43004 | -3.97344 | 36976 ft | 463 kts | 187° |
| 2026-05-05 09:40 | 44.36597 | -3.98241 | 36981 ft | 463 kts | 187° |
| 2026-05-05 09:40 | 44.30221 | -3.99095 | 36985 ft | 463 kts | 186° |
| 2026-05-05 09:41 | 44.23790 | -3.99836 | 36983 ft | 463 kts | 186° |
| 2026-05-05 09:41 | 44.17368 | -4.00550 | 36985 ft | 463 kts | 186° |
| 2026-05-05 09:42 | 44.10951 | -4.01271 | 36999 ft | 462 kts | 187° |
| 2026-05-05 09:42 | 44.04545 | -4.01999 | 36997 ft | 461 kts | 186° |
| 2026-05-05 09:43 | 43.98142 | -4.02728 | 36984 ft | 461 kts | 187° |
| 2026-05-05 09:43 | 43.91743 | -4.03455 | 36987 ft | 461 kts | 187° |
| 2026-05-05 09:44 | 43.85353 | -4.04179 | 37002 ft | 461 kts | 188° |
| 2026-05-05 09:44 | 43.78955 | -4.04903 | 36996 ft | 461 kts | 187° |
| 2026-05-05 09:45 | 43.72590 | -4.05620 | 36995 ft | 461 kts | 187° |
| 2026-05-05 09:45 | 43.66179 | -4.06342 | 37007 ft | 461 kts | 187° |
| 2026-05-05 09:46 | 43.59774 | -4.07061 | 37000 ft | 462 kts | 187° |
| 2026-05-05 09:46 | 43.53415 | -4.07772 | 37012 ft | 461 kts | 187° |
| 2026-05-05 09:47 | 43.47020 | -4.08487 | 37010 ft | 461 kts | 187° |
| 2026-05-05 09:47 | 43.40625 | -4.09200 | 37012 ft | 461 kts | 187° |
| 2026-05-05 09:48 | 43.34232 | -4.09911 | 37006 ft | 461 kts | 187° |
| 2026-05-05 09:48 | 43.27836 | -4.10622 | 37011 ft | 461 kts | 187° |
| 2026-05-05 09:49 | 43.21448 | -4.11330 | 37006 ft | 460 kts | 187° |
| 2026-05-05 09:49 | 43.15054 | -4.12037 | 36976 ft | 460 kts | 188° |
| 2026-05-05 09:50 | 43.08668 | -4.12745 | 36987 ft | 459 kts | 188° |
| 2026-05-05 09:50 | 43.02295 | -4.13449 | 36987 ft | 459 kts | 188° |
| 2026-05-05 09:51 | 42.95955 | -4.14144 | 36989 ft | 460 kts | 188° |
| 2026-05-05 09:51 | 42.89579 | -4.14842 | 36980 ft | 459 kts | 188° |
| 2026-05-05 09:52 | 42.83212 | -4.15539 | 36981 ft | 459 kts | 188° |
| 2026-05-05 09:52 | 42.76844 | -4.16235 | 36988 ft | 459 kts | 188° |
| 2026-05-05 09:53 | 42.70465 | -4.16930 | 36981 ft | 459 kts | 188° |
| 2026-05-05 09:53 | 42.64105 | -4.17623 | 36985 ft | 459 kts | 188° |
| 2026-05-05 09:54 | 42.57770 | -4.18311 | 36991 ft | 459 kts | 188° |
| 2026-05-05 09:54 | 42.51399 | -4.19000 | 36986 ft | 459 kts | 188° |
| 2026-05-05 09:55 | 42.45040 | -4.19687 | 36998 ft | 458 kts | 188° |
| 2026-05-05 09:55 | 42.38689 | -4.20373 | 36999 ft | 458 kts | 188° |
| 2026-05-05 09:56 | 42.32322 | -4.21058 | 36987 ft | 458 kts | 188° |
| 2026-05-05 09:56 | 42.25971 | -4.21741 | 37002 ft | 458 kts | 188° |
| 2026-05-05 09:57 | 42.19647 | -4.22419 | 37008 ft | 458 kts | 188° |
| 2026-05-05 09:57 | 42.13295 | -4.23099 | 37004 ft | 458 kts | 188° |
| 2026-05-05 09:58 | 42.06945 | -4.23776 | 37008 ft | 457 kts | 188° |
| 2026-05-05 09:58 | 42.00612 | -4.24450 | 37006 ft | 456 kts | 188° |
| 2026-05-05 09:59 | 41.94288 | -4.25125 | 37015 ft | 456 kts | 188° |
| 2026-05-05 09:59 | 41.87955 | -4.25799 | 37012 ft | 456 kts | 189° |
| 2026-05-05 10:00 | 41.81624 | -4.26470 | 37013 ft | 455 kts | 189° |
| 2026-05-05 10:00 | 41.75313 | -4.27136 | 37018 ft | 455 kts | 189° |
| 2026-05-05 10:01 | 41.68999 | -4.27803 | 36984 ft | 455 kts | 189° |
| 2026-05-05 10:01 | 41.62686 | -4.28467 | 37010 ft | 454 kts | 189° |
| 2026-05-05 10:02 | 41.56424 | -4.29125 | 37014 ft | 454 kts | 189° |
| 2026-05-05 10:02 | 41.50116 | -4.29788 | 37015 ft | 454 kts | 189° |
| 2026-05-05 10:03 | 41.43819 | -4.30446 | 37013 ft | 453 kts | 189° |
| 2026-05-05 10:03 | 41.37533 | -4.31103 | 37016 ft | 452 kts | 189° |
| 2026-05-05 10:04 | 41.31248 | -4.31760 | 37015 ft | 452 kts | 189° |
| 2026-05-05 10:04 | 41.25020 | -4.32409 | 37013 ft | 452 kts | 189° |
| 2026-05-05 10:05 | 41.18729 | -4.33062 | 37018 ft | 450 kts | 189° |
| 2026-05-05 10:05 | 41.12490 | -4.33709 | 37023 ft | 450 kts | 189° |
| 2026-05-05 10:06 | 41.06285 | -4.34353 | 37026 ft | 450 kts | 189° |
| 2026-05-05 10:06 | 41.00048 | -4.34997 | 37025 ft | 448 kts | 190° |
| 2026-05-05 10:07 | 40.93848 | -4.35635 | 37025 ft | 446 kts | 190° |
| 2026-05-05 10:07 | 40.87660 | -4.36272 | 37022 ft | 446 kts | 190° |
| 2026-05-05 10:08 | 40.81466 | -4.36909 | 37012 ft | 446 kts | 191° |
| 2026-05-05 10:08 | 40.75285 | -4.37542 | 37018 ft | 444 kts | 191° |
| 2026-05-05 10:09 | 40.69120 | -4.38172 | 37015 ft | 444 kts | 191° |
| 2026-05-05 10:09 | 40.62957 | -4.38804 | 37012 ft | 444 kts | 191° |
| 2026-05-05 10:10 | 40.56800 | -4.39433 | 37015 ft | 444 kts | 191° |
| 2026-05-05 10:10 | 40.50631 | -4.40060 | 37003 ft | 444 kts | 191° |
| 2026-05-05 10:11 | 40.44508 | -4.40681 | 37004 ft | 444 kts | 191° |
| 2026-05-05 10:11 | 40.38343 | -4.41307 | 36966 ft | 444 kts | 191° |
| 2026-05-05 10:12 | 40.32186 | -4.41929 | 37002 ft | 443 kts | 191° |
| 2026-05-05 10:12 | 40.26051 | -4.42548 | 37005 ft | 442 kts | 191° |
| 2026-05-05 10:13 | 40.20948 | -4.43066 | 37005 ft | 442 kts | 191° |
| 2026-05-05 10:13 | 40.14809 | -4.43685 | 36996 ft | 442 kts | 191° |
| 2026-05-05 10:14 | 40.08682 | -4.44300 | 37003 ft | 441 kts | 191° |
| 2026-05-05 10:14 | 40.02571 | -4.44914 | 37004 ft | 441 kts | 191° |
| 2026-05-05 10:15 | 39.96450 | -4.45528 | 37002 ft | 441 kts | 191° |
| 2026-05-05 10:15 | 39.90343 | -4.46137 | 37008 ft | 438 kts | 192° |
| 2026-05-05 10:16 | 39.84319 | -4.46734 | 37006 ft | 436 kts | 192° |
| 2026-05-05 10:16 | 39.78266 | -4.47340 | 37010 ft | 436 kts | 192° |
| 2026-05-05 10:17 | 39.72213 | -4.47944 | 37007 ft | 436 kts | 192° |
| 2026-05-05 10:17 | 39.66187 | -4.48542 | 37007 ft | 433 kts | 192° |
| 2026-05-05 10:18 | 39.60174 | -4.49138 | 37006 ft | 432 kts | 192° |
| 2026-05-05 10:18 | 39.54212 | -4.49727 | 37010 ft | 432 kts | 192° |
| 2026-05-05 10:19 | 39.48214 | -4.50318 | 36977 ft | 432 kts | 192° |
| 2026-05-05 10:19 | 39.42213 | -4.50910 | 37008 ft | 431 kts | 192° |
| 2026-05-05 10:20 | 39.36238 | -4.51498 | 37010 ft | 431 kts | 192° |
| 2026-05-05 10:20 | 39.30258 | -4.52088 | 37008 ft | 431 kts | 192° |
| 2026-05-05 10:21 | 39.24281 | -4.52676 | 37001 ft | 431 kts | 192° |
| 2026-05-05 10:21 | 39.18295 | -4.53263 | 37013 ft | 431 kts | 192° |
| 2026-05-05 10:22 | 39.12354 | -4.53843 | 37011 ft | 431 kts | 192° |
| 2026-05-05 10:22 | 39.06373 | -4.54426 | 37011 ft | 431 kts | 192° |
| 2026-05-05 10:23 | 39.00395 | -4.55009 | 37012 ft | 431 kts | 193° |
| 2026-05-05 10:23 | 38.94414 | -4.55597 | 37013 ft | 430 kts | 193° |
| 2026-05-05 10:24 | 38.88518 | -4.56603 | 37015 ft | 426 kts | 197° |
| 2026-05-05 10:24 | 38.82689 | -4.57886 | 37017 ft | 425 kts | 198° |
| 2026-05-05 10:25 | 38.76835 | -4.59176 | 37018 ft | 427 kts | 198° |
| 2026-05-05 10:25 | 38.70976 | -4.60417 | 37018 ft | 427 kts | 197° |
| 2026-05-05 10:26 | 38.65149 | -4.61625 | 37021 ft | 427 kts | 197° |
| 2026-05-05 10:26 | 38.59286 | -4.62835 | 37020 ft | 427 kts | 197° |
| 2026-05-05 10:27 | 38.53416 | -4.64046 | 37012 ft | 427 kts | 197° |
| 2026-05-05 10:27 | 38.47551 | -4.65255 | 37017 ft | 426 kts | 197° |
| 2026-05-05 10:28 | 38.41697 | -4.66462 | 37020 ft | 426 kts | 197° |
| 2026-05-05 10:28 | 38.35842 | -4.67667 | 37017 ft | 426 kts | 197° |
| 2026-05-05 10:29 | 38.30030 | -4.68860 | 37018 ft | 426 kts | 197° |
| 2026-05-05 10:29 | 38.24178 | -4.70061 | 37016 ft | 426 kts | 197° |
| 2026-05-05 10:30 | 38.18321 | -4.71259 | 37016 ft | 426 kts | 197° |
| 2026-05-05 10:30 | 38.12464 | -4.72459 | 37017 ft | 426 kts | 197° |
| 2026-05-05 10:31 | 38.06622 | -4.73657 | 37014 ft | 426 kts | 197° |
| 2026-05-05 10:31 | 38.00765 | -4.74857 | 37020 ft | 426 kts | 197° |
| 2026-05-05 10:32 | 37.94899 | -4.76048 | 37047 ft | 427 kts | 197° |
| 2026-05-05 10:32 | 37.89067 | -4.77225 | 37044 ft | 427 kts | 197° |
| 2026-05-05 10:33 | 37.83198 | -4.78417 | 37034 ft | 427 kts | 197° |
| 2026-05-05 10:33 | 37.77298 | -4.79443 | 37046 ft | 434 kts | 189° |
| 2026-05-05 10:34 | 37.74238 | -4.79161 | 37049 ft | 446 kts | 179° |
| 2026-05-05 10:34 | 37.71174 | -4.78431 | 37043 ft | 449 kts | 176° |
| 2026-05-05 10:34 | 37.65049 | -4.76760 | 37035 ft | 450 kts | 176° |
| 2026-05-05 10:35 | 37.58926 | -4.75058 | 37028 ft | 450 kts | 176° |
| 2026-05-05 10:35 | 37.52810 | -4.73356 | 37024 ft | 449 kts | 176° |
| 2026-05-05 10:36 | 37.46697 | -4.71660 | 37017 ft | 449 kts | 176° |
| 2026-05-05 10:36 | 37.40626 | -4.69978 | 37015 ft | 449 kts | 176° |
| 2026-05-05 10:37 | 37.34516 | -4.68288 | 37016 ft | 449 kts | 175° |
| 2026-05-05 10:37 | 37.28506 | -4.66618 | 36993 ft | 429 kts | 176° |
| 2026-05-05 10:38 | 37.25639 | -4.65808 | 36944 ft | 416 kts | 174° |
| 2026-05-05 10:38 | 37.22908 | -4.64455 | 36310 ft | 435 kts | 158° |
| 2026-05-05 10:38 | 37.20439 | -4.62086 | 35480 ft | 454 kts | 147° |
| 2026-05-05 10:38 | 37.17950 | -4.59759 | 34981 ft | 436 kts | 161° |
| 2026-05-05 10:39 | 37.15183 | -4.58521 | 34483 ft | 411 kts | 180° |
| 2026-05-05 10:39 | 37.12390 | -4.58208 | 33987 ft | 399 kts | 186° |
| 2026-05-05 10:39 | 37.09628 | -4.58056 | 33427 ft | 396 kts | 185° |
| 2026-05-05 10:39 | 37.06887 | -4.57858 | 32898 ft | 394 kts | 185° |
| 2026-05-05 10:40 | 37.04174 | -4.57595 | 32700 ft | 385 kts | 184° |
| 2026-05-05 10:40 | 37.01538 | -4.57274 | 32344 ft | 376 kts | 182° |
| 2026-05-05 10:40 | 36.98936 | -4.56906 | 31355 ft | 379 kts | 182° |
| 2026-05-05 10:40 | 36.96292 | -4.56490 | 30404 ft | 383 kts | 181° |
| 2026-05-05 10:41 | 36.93669 | -4.56026 | 29750 ft | 378 kts | 180° |
| 2026-05-05 10:41 | 36.91080 | -4.55511 | 29063 ft | 373 kts | 179° |
| 2026-05-05 10:41 | 36.88550 | -4.55087 | 28318 ft | 362 kts | 184° |
| 2026-05-05 10:41 | 36.86039 | -4.55066 | 27212 ft | 362 kts | 190° |
| 2026-05-05 10:42 | 36.81265 | -4.56406 | 25746 ft | 340 kts | 210° |
| 2026-05-05 10:42 | 36.79223 | -4.57819 | 25241 ft | 324 kts | 221° |
| 2026-05-05 10:42 | 36.77564 | -4.59621 | 24758 ft | 310 kts | 231° |
| 2026-05-05 10:43 | 36.76369 | -4.61729 | 24393 ft | 299 kts | 250° |
| 2026-05-05 10:43 | 36.76065 | -4.64355 | 24153 ft | 318 kts | 272° |
| 2026-05-05 10:43 | 36.76695 | -4.67025 | 23310 ft | 330 kts | 295° |
| 2026-05-05 10:43 | 36.78270 | -4.69137 | 22647 ft | 338 kts | 320° |
| 2026-05-05 10:44 | 36.80452 | -4.70239 | 22212 ft | 340 kts | 339° |
| 2026-05-05 10:44 | 36.82714 | -4.70938 | 21664 ft | 331 kts | 338° |
| 2026-05-05 10:44 | 36.85001 | -4.71398 | 21031 ft | 337 kts | 350° |
| 2026-05-05 10:44 | 36.87345 | -4.71139 | 20558 ft | 341 kts | 8° |
| 2026-05-05 10:45 | 36.89518 | -4.69979 | 20268 ft | 341 kts | 28° |
| 2026-05-05 10:45 | 36.91247 | -4.67940 | 19785 ft | 347 kts | 52° |
| 2026-05-05 10:45 | 36.92266 | -4.65161 | 18954 ft | 358 kts | 75° |
| 2026-05-05 10:45 | 36.92786 | -4.62085 | 18127 ft | 365 kts | 82° |
| 2026-05-05 10:46 | 36.92780 | -4.58931 | 17345 ft | 360 kts | 105° |
| 2026-05-05 10:46 | 36.91822 | -4.56149 | 16757 ft | 343 kts | 131° |
| 2026-05-05 10:46 | 36.90273 | -4.53968 | 16208 ft | 331 kts | 140° |
| 2026-05-05 10:46 | 36.88646 | -4.51975 | 15671 ft | 325 kts | 141° |
| 2026-05-05 10:47 | 36.87031 | -4.50023 | 15141 ft | 320 kts | 141° |
| 2026-05-05 10:47 | 36.85464 | -4.48118 | 14614 ft | 317 kts | 141° |
| 2026-05-05 10:47 | 36.83897 | -4.46202 | 14163 ft | 311 kts | 140° |
| 2026-05-05 10:47 | 36.82409 | -4.44367 | 14054 ft | 292 kts | 141° |
| 2026-05-05 10:48 | 36.81003 | -4.42631 | 13881 ft | 280 kts | 141° |
| 2026-05-05 10:48 | 36.79607 | -4.40924 | 13336 ft | 283 kts | 141° |
| 2026-05-05 10:48 | 36.78202 | -4.39208 | 12872 ft | 282 kts | 141° |
| 2026-05-05 10:48 | 36.76802 | -4.37492 | 12441 ft | 280 kts | 140° |
| 2026-05-05 10:49 | 36.75419 | -4.35792 | 11994 ft | 277 kts | 140° |
| 2026-05-05 10:49 | 36.74071 | -4.34166 | 11840 ft | 261 kts | 144° |
| 2026-05-05 10:49 | 36.72578 | -4.32916 | 11527 ft | 257 kts | 156° |
| 2026-05-05 10:49 | 36.70990 | -4.31905 | 11108 ft | 256 kts | 159° |
| 2026-05-05 10:50 | 36.69416 | -4.30951 | 10697 ft | 255 kts | 159° |
| 2026-05-05 10:50 | 36.67826 | -4.29988 | 10300 ft | 253 kts | 158° |
| 2026-05-05 10:50 | 36.66250 | -4.29029 | 9899 ft | 251 kts | 158° |
| 2026-05-05 10:50 | 36.64686 | -4.28072 | 9504 ft | 248 kts | 158° |
| 2026-05-05 10:51 | 36.63153 | -4.27132 | 9139 ft | 245 kts | 157° |
| 2026-05-05 10:51 | 36.61697 | -4.26046 | 8804 ft | 246 kts | 143° |
| 2026-05-05 10:51 | 36.60458 | -4.24472 | 8730 ft | 262 kts | 134° |
| 2026-05-05 10:51 | 36.59272 | -4.22733 | 8525 ft | 265 kts | 132° |
| 2026-05-05 10:52 | 36.58094 | -4.20968 | 8075 ft | 264 kts | 132° |
| 2026-05-05 10:52 | 36.56905 | -4.19307 | 7799 ft | 251 kts | 135° |
| 2026-05-05 10:52 | 36.55736 | -4.17750 | 7467 ft | 243 kts | 135° |
| 2026-05-05 10:52 | 36.54584 | -4.16236 | 7095 ft | 239 kts | 135° |
| 2026-05-05 10:53 | 36.53447 | -4.14748 | 6719 ft | 235 kts | 135° |
| 2026-05-05 10:53 | 36.52319 | -4.13283 | 6327 ft | 233 kts | 142° |
| 2026-05-05 10:53 | 36.50880 | -4.12483 | 5975 ft | 226 kts | 176° |
| 2026-05-05 10:53 | 36.49375 | -4.12781 | 5715 ft | 218 kts | 210° |
| 2026-05-05 10:54 | 36.48237 | -4.13953 | 5474 ft | 211 kts | 232° |
| 2026-05-05 10:54 | 36.47307 | -4.15346 | 5199 ft | 209 kts | 235° |
| 2026-05-05 10:54 | 36.46399 | -4.16769 | 5022 ft | 210 kts | 236° |
| 2026-05-05 10:54 | 36.45939 | -4.18396 | 4930 ft | 202 kts | 275° |
| 2026-05-05 10:55 | 36.46374 | -4.20034 | 4875 ft | 202 kts | 298° |
| 2026-05-05 10:55 | 36.47164 | -4.21460 | 4835 ft | 200 kts | 308° |
| 2026-05-05 10:55 | 36.48081 | -4.22772 | 4778 ft | 202 kts | 311° |
| 2026-05-05 10:55 | 36.49024 | -4.24077 | 4721 ft | 202 kts | 311° |
| 2026-05-05 10:56 | 36.49956 | -4.25369 | 4671 ft | 200 kts | 311° |
| 2026-05-05 10:56 | 36.50876 | -4.26651 | 4607 ft | 198 kts | 311° |
| 2026-05-05 10:56 | 36.51785 | -4.27935 | 4423 ft | 198 kts | 311° |
| 2026-05-05 10:56 | 36.52690 | -4.29203 | 4163 ft | 190 kts | 311° |
| 2026-05-05 10:57 | 36.53551 | -4.30402 | 3870 ft | 182 kts | 312° |
| 2026-05-05 10:57 | 36.54374 | -4.31552 | 3590 ft | 175 kts | 312° |
| 2026-05-05 10:57 | 36.55180 | -4.32678 | 3358 ft | 175 kts | 312° |
| 2026-05-05 10:57 | 36.55991 | -4.33810 | 3114 ft | 175 kts | 312° |
| 2026-05-05 10:58 | 36.56798 | -4.34939 | 2893 ft | 173 kts | 312° |
| 2026-05-05 10:58 | 36.57324 | -4.35675 | 2739 ft | 171 kts | 312° |
| 2026-05-05 10:58 | 36.58113 | -4.36778 | 2509 ft | 168 kts | 312° |
| 2026-05-05 10:58 | 36.59060 | -4.38104 | 2243 ft | 143 kts | 311° |
| 2026-05-05 10:59 | 36.59705 | -4.39005 | 2057 ft | 138 kts | 311° |
| 2026-05-05 10:59 | 36.60316 | -4.39861 | 1859 ft | 123 kts | 311° |
| 2026-05-05 10:59 | 36.60679 | -4.40369 | 1761 ft | 115 kts | 311° |
| 2026-05-05 10:59 | 36.61202 | -4.41099 | 1619 ft | 112 kts | 311° |
| 2026-05-05 11:00 | 36.61735 | -4.41815 | 1430 ft | 113 kts | 311° |
| 2026-05-05 11:00 | 36.62254 | -4.42541 | 1274 ft | 112 kts | 308° |
| 2026-05-05 11:00 | 36.62761 | -4.43276 | 1214 ft | 112 kts | 310° |
| 2026-05-05 11:00 | 36.63290 | -4.43997 | 1050 ft | 113 kts | 310° |
| 2026-05-05 11:01 | 36.63800 | -4.44731 | 844 ft | 112 kts | 308° |
| 2026-05-05 11:01 | 36.64321 | -4.45468 | 767 ft | 114 kts | 309° |
| 2026-05-05 11:01 | 36.64852 | -4.46203 | 633 ft | 114 kts | 308° |
| 2026-05-05 11:01 | 36.65373 | -4.46937 | 456 ft | 113 kts | 308° |
| 2026-05-05 11:02 | 36.65887 | -4.47669 | 295 ft | 112 kts | 309° |
| 2026-05-05 11:02 | 36.66406 | -4.48389 | 138 ft | 112 kts | 309° |
| 2026-05-05 11:02 | 36.66926 | -4.49113 | 51 ft | 110 kts | 309° |
| 2026-05-05 11:02 | 36.67342 | -4.49713 | 52 ft | 70 kts | 311° |
| 2026-05-05 11:03 | 36.67613 | -4.50080 | 55 ft | 37 kts | 319° |
| 2026-05-05 11:03 | 36.67801 | -4.50221 | 52 ft | 27 kts | 339° |
| 2026-05-05 11:03 | 36.67861 | -4.50126 | 45 ft | 19 kts | 132° |
| 2026-05-05 11:03 | 36.67773 | -4.50009 | 50 ft | 18 kts | 131° |
| 2026-05-05 11:04 | 36.67688 | -4.49890 | 49 ft | 18 kts | 131° |
| 2026-05-05 11:04 | 36.67604 | -4.49773 | 49 ft | 18 kts | 131° |
| 2026-05-05 11:04 | 36.67543 | -4.49686 | 49 ft | 7 kts | 131° |
| 2026-05-05 11:04 | 36.67510 | -4.49635 | 49 ft | 8 kts | 123° |
| 2026-05-05 11:05 | 36.67514 | -4.49577 | 47 ft | 7 kts | 55° |
| 2026-05-05 11:05 | 36.67542 | -4.49528 | 48 ft | 7 kts | 53° |
| 2026-05-05 11:05 | 36.67576 | -4.49483 | 48 ft | 7 kts | 41° |
| 2026-05-05 11:05 | 36.67613 | -4.49442 | 48 ft | 7 kts | 41° |
| 2026-05-05 11:06 | 36.67631 | -4.49423 | 48 ft | 0 kts | 41° |